sensor_id;sensor_type;location;lat;lon;timestamp;temperature;humidity
11963;DHT22;62678;52.130;5.584;2022-11-12T00:01:39;6.90;99.90
11963;DHT22;62678;52.130;5.584;2022-11-12T00:04:06;6.90;99.90
11963;DHT22;62678;52.130;5.584;2022-11-12T00:06:35;6.90;99.90
11963;DHT22;62678;52.130;5.584;2022-11-12T00:09:02;7.00;99.90
11963;DHT22;62678;52.130;5.584;2022-11-12T00:11:29;6.90;99.90
11963;DHT22;62678;52.130;5.584;2022-11-12T00:13:55;7.00;99.90
11963;DHT22;62678;52.130;5.584;2022-11-12T00:16:22;7.00;99.90
11963;DHT22;62678;52.130;5.584;2022-11-12T00:18:49;7.00;99.90
11963;DHT22;62678;52.130;5.584;2022-11-12T00:21:15;7.00;99.90
11963;DHT22;62678;52.130;5.584;2022-11-12T00:23:44;7.10;99.90
11963;DHT22;62678;52.130;5.584;2022-11-12T00:26:10;7.10;99.90
11963;DHT22;62678;52.130;5.584;2022-11-12T00:28:37;7.10;99.90
11963;DHT22;62678;52.130;5.584;2022-11-12T00:31:08;7.10;99.90
11963;DHT22;62678;52.130;5.584;2022-11-12T00:33:38;7.20;99.90
11963;DHT22;62678;52.130;5.584;2022-11-12T00:36:06;7.10;99.90
11963;DHT22;62678;52.130;5.584;2022-11-12T00:38:33;7.10;99.90
11963;DHT22;62678;52.130;5.584;2022-11-12T00:41:02;7.20;99.90
11963;DHT22;62678;52.130;5.584;2022-11-12T00:43:28;7.20;99.90
11963;DHT22;62678;52.130;5.584;2022-11-12T00:45:55;7.20;99.90
11963;DHT22;62678;52.130;5.584;2022-11-12T00:48:22;7.20;99.90
11963;DHT22;62678;52.130;5.584;2022-11-12T00:50:49;7.10;99.90
11963;DHT22;62678;52.130;5.584;2022-11-12T00:53:16;7.20;99.90
11963;DHT22;62678;52.130;5.584;2022-11-12T00:55:42;7.20;99.90
11963;DHT22;62678;52.130;5.584;2022-11-12T00:58:11;7.30;99.90
11963;DHT22;62678;52.130;5.584;2022-11-12T01:00:37;7.30;99.90
11963;DHT22;62678;52.130;5.584;2022-11-12T01:03:04;7.40;99.90
11963;DHT22;62678;52.130;5.584;2022-11-12T01:05:31;7.40;99.90
11963;DHT22;62678;52.130;5.584;2022-11-12T01:07:58;7.30;99.90
11963;DHT22;62678;52.130;5.584;2022-11-12T01:10:25;7.30;99.90
11963;DHT22;62678;52.130;5.584;2022-11-12T01:12:53;7.30;99.90
11963;DHT22;62678;52.130;5.584;2022-11-12T01:15:24;7.30;99.90
11963;DHT22;62678;52.130;5.584;2022-11-12T01:17:51;7.30;99.90
11963;DHT22;62678;52.130;5.584;2022-11-12T01:20:18;7.20;99.90
11963;DHT22;62678;52.130;5.584;2022-11-12T01:22:45;7.20;99.90
11963;DHT22;62678;52.130;5.584;2022-11-12T01:25:11;7.20;99.90
11963;DHT22;62678;52.130;5.584;2022-11-12T01:27:38;7.20;99.90
11963;DHT22;62678;52.130;5.584;2022-11-12T01:30:06;7.30;99.90
11963;DHT22;62678;52.130;5.584;2022-11-12T01:32:37;7.40;99.90
11963;DHT22;62678;52.130;5.584;2022-11-12T01:35:04;7.30;99.90
11963;DHT22;62678;52.130;5.584;2022-11-12T01:37:31;7.40;99.90
11963;DHT22;62678;52.130;5.584;2022-11-12T01:39:58;7.30;99.90
11963;DHT22;62678;52.130;5.584;2022-11-12T01:42:28;7.30;99.90
11963;DHT22;62678;52.130;5.584;2022-11-12T01:44:55;7.40;99.90
11963;DHT22;62678;52.130;5.584;2022-11-12T01:47:25;7.30;99.90
11963;DHT22;62678;52.130;5.584;2022-11-12T01:49:56;7.30;99.90
11963;DHT22;62678;52.130;5.584;2022-11-12T01:52:28;7.30;99.90
11963;DHT22;62678;52.130;5.584;2022-11-12T01:54:58;7.30;99.90
11963;DHT22;62678;52.130;5.584;2022-11-12T01:57:29;7.20;99.90
11963;DHT22;62678;52.130;5.584;2022-11-12T02:00:01;7.20;99.90
11963;DHT22;62678;52.130;5.584;2022-11-12T02:02:29;7.20;99.90
11963;DHT22;62678;52.130;5.584;2022-11-12T02:04:58;7.20;99.90
11963;DHT22;62678;52.130;5.584;2022-11-12T02:07:25;7.20;99.90
11963;DHT22;62678;52.130;5.584;2022-11-12T02:09:52;7.20;99.90
11963;DHT22;62678;52.130;5.584;2022-11-12T02:12:19;7.20;99.90
11963;DHT22;62678;52.130;5.584;2022-11-12T02:15:00;7.20;99.90
11963;DHT22;62678;52.130;5.584;2022-11-12T02:17:27;7.10;99.90
11963;DHT22;62678;52.130;5.584;2022-11-12T02:19:58;7.10;99.90
11963;DHT22;62678;52.130;5.584;2022-11-12T02:22:27;7.10;99.90
11963;DHT22;62678;52.130;5.584;2022-11-12T02:24:54;7.10;99.90
11963;DHT22;62678;52.130;5.584;2022-11-12T02:27:21;7.10;99.90
11963;DHT22;62678;52.130;5.584;2022-11-12T02:29:48;7.10;99.90
11963;DHT22;62678;52.130;5.584;2022-11-12T02:32:15;7.10;99.90
11963;DHT22;62678;52.130;5.584;2022-11-12T02:34:42;7.10;99.90
11963;DHT22;62678;52.130;5.584;2022-11-12T02:37:08;7.10;99.90
11963;DHT22;62678;52.130;5.584;2022-11-12T02:39:36;7.00;99.90
11963;DHT22;62678;52.130;5.584;2022-11-12T02:42:03;7.00;99.90
11963;DHT22;62678;52.130;5.584;2022-11-12T02:44:30;6.90;99.90
11963;DHT22;62678;52.130;5.584;2022-11-12T02:46:57;6.90;99.90
11963;DHT22;62678;52.130;5.584;2022-11-12T02:49:24;6.80;99.90
11963;DHT22;62678;52.130;5.584;2022-11-12T02:51:50;6.80;99.90
11963;DHT22;62678;52.130;5.584;2022-11-12T02:54:17;6.70;99.90
11963;DHT22;62678;52.130;5.584;2022-11-12T02:56:45;6.70;99.90
11963;DHT22;62678;52.130;5.584;2022-11-12T02:59:12;6.60;99.90
11963;DHT22;62678;52.130;5.584;2022-11-12T03:01:39;6.70;99.90
11963;DHT22;62678;52.130;5.584;2022-11-12T03:04:06;6.70;99.90
11963;DHT22;62678;52.130;5.584;2022-11-12T03:06:32;6.70;99.90
11963;DHT22;62678;52.130;5.584;2022-11-12T03:08:59;6.80;99.90
11963;DHT22;62678;52.130;5.584;2022-11-12T03:11:26;6.70;99.90
11963;DHT22;62678;52.130;5.584;2022-11-12T03:13:54;6.70;99.90
11963;DHT22;62678;52.130;5.584;2022-11-12T03:16:21;6.70;99.90
11963;DHT22;62678;52.130;5.584;2022-11-12T03:18:47;6.70;99.90
11963;DHT22;62678;52.130;5.584;2022-11-12T03:21:14;6.80;99.90
11963;DHT22;62678;52.130;5.584;2022-11-12T03:23:41;6.80;99.90
11963;DHT22;62678;52.130;5.584;2022-11-12T03:26:08;6.80;99.90
11963;DHT22;62678;52.130;5.584;2022-11-12T03:28:34;6.70;99.90
11963;DHT22;62678;52.130;5.584;2022-11-12T03:31:02;6.80;99.90
11963;DHT22;62678;52.130;5.584;2022-11-12T03:33:29;6.80;99.90
11963;DHT22;62678;52.130;5.584;2022-11-12T03:35:56;6.80;99.90
11963;DHT22;62678;52.130;5.584;2022-11-12T03:38:23;6.80;99.90
11963;DHT22;62678;52.130;5.584;2022-11-12T03:40:49;6.80;99.90
11963;DHT22;62678;52.130;5.584;2022-11-12T03:43:16;6.70;99.90
11963;DHT22;62678;52.130;5.584;2022-11-12T03:45:43;6.70;99.90
11963;DHT22;62678;52.130;5.584;2022-11-12T03:48:11;6.70;99.90
11963;DHT22;62678;52.130;5.584;2022-11-12T03:50:38;6.80;99.90
11963;DHT22;62678;52.130;5.584;2022-11-12T03:53:04;6.70;99.90
11963;DHT22;62678;52.130;5.584;2022-11-12T03:55:31;6.70;99.90
11963;DHT22;62678;52.130;5.584;2022-11-12T03:57:58;6.70;99.90
11963;DHT22;62678;52.130;5.584;2022-11-12T04:00:27;6.70;99.90
11963;DHT22;62678;52.130;5.584;2022-11-12T04:02:54;6.60;99.90
11963;DHT22;62678;52.130;5.584;2022-11-12T04:05:23;6.60;99.90
11963;DHT22;62678;52.130;5.584;2022-11-12T04:08:12;6.60;99.90
11963;DHT22;62678;52.130;5.584;2022-11-12T04:10:56;6.60;99.90
11963;DHT22;62678;52.130;5.584;2022-11-12T04:13:23;6.60;99.90
11963;DHT22;62678;52.130;5.584;2022-11-12T04:15:52;6.60;99.90
11963;DHT22;62678;52.130;5.584;2022-11-12T04:18:33;6.60;99.90
11963;DHT22;62678;52.130;5.584;2022-11-12T04:21:18;6.50;99.90
11963;DHT22;62678;52.130;5.584;2022-11-12T04:24:03;6.50;99.90
11963;DHT22;62678;52.130;5.584;2022-11-12T04:26:30;6.50;99.90
11963;DHT22;62678;52.130;5.584;2022-11-12T04:28:55;6.50;99.90
11963;DHT22;62678;52.130;5.584;2022-11-12T04:31:45;6.50;99.90
11963;DHT22;62678;52.130;5.584;2022-11-12T04:34:11;6.50;99.90
11963;DHT22;62678;52.130;5.584;2022-11-12T04:36:57;6.50;99.90
11963;DHT22;62678;52.130;5.584;2022-11-12T04:39:24;6.50;99.90
11963;DHT22;62678;52.130;5.584;2022-11-12T04:41:51;6.50;99.90
11963;DHT22;62678;52.130;5.584;2022-11-12T04:44:35;6.50;99.90
11963;DHT22;62678;52.130;5.584;2022-11-12T04:47:25;6.50;99.90
11963;DHT22;62678;52.130;5.584;2022-11-12T04:49:52;6.40;99.90
11963;DHT22;62678;52.130;5.584;2022-11-12T04:52:20;6.40;99.90
11963;DHT22;62678;52.130;5.584;2022-11-12T04:54:47;6.50;99.90
11963;DHT22;62678;52.130;5.584;2022-11-12T04:57:13;6.50;99.90
11963;DHT22;62678;52.130;5.584;2022-11-12T04:59:40;6.40;99.90
11963;DHT22;62678;52.130;5.584;2022-11-12T05:02:07;6.40;99.90
11963;DHT22;62678;52.130;5.584;2022-11-12T05:04:34;6.40;99.90
11963;DHT22;62678;52.130;5.584;2022-11-12T05:07:01;6.40;99.90
11963;DHT22;62678;52.130;5.584;2022-11-12T05:09:29;6.40;99.90
11963;DHT22;62678;52.130;5.584;2022-11-12T05:11:56;6.30;99.90
11963;DHT22;62678;52.130;5.584;2022-11-12T05:14:23;6.30;99.90
11963;DHT22;62678;52.130;5.584;2022-11-12T05:16:51;6.20;99.90
11963;DHT22;62678;52.130;5.584;2022-11-12T05:19:17;6.20;99.90
11963;DHT22;62678;52.130;5.584;2022-11-12T05:21:45;6.10;99.90
11963;DHT22;62678;52.130;5.584;2022-11-12T05:24:32;6.10;99.90
11963;DHT22;62678;52.130;5.584;2022-11-12T05:26:59;6.10;99.90
11963;DHT22;62678;52.130;5.584;2022-11-12T05:29:25;6.10;99.90
11963;DHT22;62678;52.130;5.584;2022-11-12T05:31:52;6.00;99.90
11963;DHT22;62678;52.130;5.584;2022-11-12T05:34:19;6.00;99.90
11963;DHT22;62678;52.130;5.584;2022-11-12T05:36:46;6.00;99.90
11963;DHT22;62678;52.130;5.584;2022-11-12T05:39:12;6.00;99.90
11963;DHT22;62678;52.130;5.584;2022-11-12T05:41:40;5.90;99.90
11963;DHT22;62678;52.130;5.584;2022-11-12T05:44:07;5.90;99.90
11963;DHT22;62678;52.130;5.584;2022-11-12T05:46:34;5.90;99.90
11963;DHT22;62678;52.130;5.584;2022-11-12T05:49:01;5.90;99.90
11963;DHT22;62678;52.130;5.584;2022-11-12T05:51:27;5.90;99.90
11963;DHT22;62678;52.130;5.584;2022-11-12T05:53:54;5.90;99.90
11963;DHT22;62678;52.130;5.584;2022-11-12T05:56:21;5.90;99.90
11963;DHT22;62678;52.130;5.584;2022-11-12T05:58:49;5.90;99.90
11963;DHT22;62678;52.130;5.584;2022-11-12T06:01:16;5.90;99.90
11963;DHT22;62678;52.130;5.584;2022-11-12T06:03:42;5.90;99.90
11963;DHT22;62678;52.130;5.584;2022-11-12T06:06:09;5.90;99.90
11963;DHT22;62678;52.130;5.584;2022-11-12T06:08:36;5.90;99.90
11963;DHT22;62678;52.130;5.584;2022-11-12T06:11:03;5.90;99.90
11963;DHT22;62678;52.130;5.584;2022-11-12T06:13:30;5.90;99.90
11963;DHT22;62678;52.130;5.584;2022-11-12T06:15:58;5.80;99.90
11963;DHT22;62678;52.130;5.584;2022-11-12T06:18:25;5.80;99.90
11963;DHT22;62678;52.130;5.584;2022-11-12T06:20:52;5.80;99.90
11963;DHT22;62678;52.130;5.584;2022-11-12T06:23:36;5.80;99.90
11963;DHT22;62678;52.130;5.584;2022-11-12T06:26:03;5.80;99.90
11963;DHT22;62678;52.130;5.584;2022-11-12T06:28:30;5.90;99.90
11963;DHT22;62678;52.130;5.584;2022-11-12T06:30:58;5.90;99.90
11963;DHT22;62678;52.130;5.584;2022-11-12T06:33:25;5.90;99.90
11963;DHT22;62678;52.130;5.584;2022-11-12T06:35:58;5.90;99.90
11963;DHT22;62678;52.130;5.584;2022-11-12T06:38:27;5.90;99.90
11963;DHT22;62678;52.130;5.584;2022-11-12T06:40:54;5.90;99.90
11963;DHT22;62678;52.130;5.584;2022-11-12T06:43:21;5.90;99.90
11963;DHT22;62678;52.130;5.584;2022-11-12T06:45:48;5.90;99.90
11963;DHT22;62678;52.130;5.584;2022-11-12T06:48:16;5.90;99.90
11963;DHT22;62678;52.130;5.584;2022-11-12T06:50:43;5.90;99.90
11963;DHT22;62678;52.130;5.584;2022-11-12T06:53:09;5.90;99.90
11963;DHT22;62678;52.130;5.584;2022-11-12T06:55:36;5.90;99.90
11963;DHT22;62678;52.130;5.584;2022-11-12T06:58:03;5.90;99.90
11963;DHT22;62678;52.130;5.584;2022-11-12T07:00:30;5.90;99.90
11963;DHT22;62678;52.130;5.584;2022-11-12T07:02:56;5.90;99.90
11963;DHT22;62678;52.130;5.584;2022-11-12T07:05:25;5.90;99.90
11963;DHT22;62678;52.130;5.584;2022-11-12T07:07:53;5.90;99.90
11963;DHT22;62678;52.130;5.584;2022-11-12T07:10:20;5.90;99.90
11963;DHT22;62678;52.130;5.584;2022-11-12T07:12:46;5.90;99.90
11963;DHT22;62678;52.130;5.584;2022-11-12T07:15:13;6.00;99.90
11963;DHT22;62678;52.130;5.584;2022-11-12T07:17:44;6.00;99.90
11963;DHT22;62678;52.130;5.584;2022-11-12T07:20:11;6.10;99.90
11963;DHT22;62678;52.130;5.584;2022-11-12T07:22:39;6.00;99.90
11963;DHT22;62678;52.130;5.584;2022-11-12T07:25:07;6.00;99.90
11963;DHT22;62678;52.130;5.584;2022-11-12T07:27:34;6.00;99.90
11963;DHT22;62678;52.130;5.584;2022-11-12T07:30:00;6.00;99.90
11963;DHT22;62678;52.130;5.584;2022-11-12T07:32:28;6.10;99.90
11963;DHT22;62678;52.130;5.584;2022-11-12T07:34:55;6.10;99.90
11963;DHT22;62678;52.130;5.584;2022-11-12T07:37:21;6.10;99.90
11963;DHT22;62678;52.130;5.584;2022-11-12T07:39:50;6.10;99.90
11963;DHT22;62678;52.130;5.584;2022-11-12T07:42:17;6.20;99.90
11963;DHT22;62678;52.130;5.584;2022-11-12T07:44:45;6.20;99.90
11963;DHT22;62678;52.130;5.584;2022-11-12T07:47:11;6.20;99.90
11963;DHT22;62678;52.130;5.584;2022-11-12T07:49:38;6.30;99.90
11963;DHT22;62678;52.130;5.584;2022-11-12T07:52:05;6.40;99.90
11963;DHT22;62678;52.130;5.584;2022-11-12T07:54:32;6.40;99.90
11963;DHT22;62678;52.130;5.584;2022-11-12T07:57:00;6.40;99.90
11963;DHT22;62678;52.130;5.584;2022-11-12T07:59:27;6.40;99.90
11963;DHT22;62678;52.130;5.584;2022-11-12T08:01:54;6.40;99.90
11963;DHT22;62678;52.130;5.584;2022-11-12T08:04:21;6.50;99.90
11963;DHT22;62678;52.130;5.584;2022-11-12T08:06:48;6.60;99.90
11963;DHT22;62678;52.130;5.584;2022-11-12T08:09:14;6.70;99.90
11963;DHT22;62678;52.130;5.584;2022-11-12T08:11:41;6.70;99.90
11963;DHT22;62678;52.130;5.584;2022-11-12T08:14:09;6.70;99.90
11963;DHT22;62678;52.130;5.584;2022-11-12T08:16:36;6.80;99.90
11963;DHT22;62678;52.130;5.584;2022-11-12T08:19:03;6.80;99.90
11963;DHT22;62678;52.130;5.584;2022-11-12T08:21:29;6.80;99.90
11963;DHT22;62678;52.130;5.584;2022-11-12T08:23:56;6.80;99.90
11963;DHT22;62678;52.130;5.584;2022-11-12T08:26:23;6.90;99.90
11963;DHT22;62678;52.130;5.584;2022-11-12T08:28:53;7.00;99.90
11963;DHT22;62678;52.130;5.584;2022-11-12T08:31:22;7.00;99.90
11963;DHT22;62678;52.130;5.584;2022-11-12T08:33:48;7.10;99.90
11963;DHT22;62678;52.130;5.584;2022-11-12T08:36:17;7.10;99.90
11963;DHT22;62678;52.130;5.584;2022-11-12T08:38:44;7.10;99.90
11963;DHT22;62678;52.130;5.584;2022-11-12T08:41:12;7.20;99.90
11963;DHT22;62678;52.130;5.584;2022-11-12T08:43:41;7.30;99.90
11963;DHT22;62678;52.130;5.584;2022-11-12T08:46:08;7.30;99.90
11963;DHT22;62678;52.130;5.584;2022-11-12T08:48:37;7.50;99.90
11963;DHT22;62678;52.130;5.584;2022-11-12T08:51:05;7.60;99.90
11963;DHT22;62678;52.130;5.584;2022-11-12T08:53:32;7.60;99.90
11963;DHT22;62678;52.130;5.584;2022-11-12T08:55:59;7.70;99.90
11963;DHT22;62678;52.130;5.584;2022-11-12T08:58:26;7.70;99.90
11963;DHT22;62678;52.130;5.584;2022-11-12T09:00:53;7.80;99.90
11963;DHT22;62678;52.130;5.584;2022-11-12T09:03:21;7.80;99.90
11963;DHT22;62678;52.130;5.584;2022-11-12T09:05:51;7.90;99.90
11963;DHT22;62678;52.130;5.584;2022-11-12T09:08:19;8.00;99.90
11963;DHT22;62678;52.130;5.584;2022-11-12T09:10:46;8.10;99.90
11963;DHT22;62678;52.130;5.584;2022-11-12T09:13:13;8.10;99.90
11963;DHT22;62678;52.130;5.584;2022-11-12T09:15:41;8.20;99.90
11963;DHT22;62678;52.130;5.584;2022-11-12T09:18:11;8.20;99.90
11963;DHT22;62678;52.130;5.584;2022-11-12T09:20:38;8.40;99.90
11963;DHT22;62678;52.130;5.584;2022-11-12T09:23:12;8.50;99.90
11963;DHT22;62678;52.130;5.584;2022-11-12T09:25:40;8.60;99.90
11963;DHT22;62678;52.130;5.584;2022-11-12T09:28:08;8.70;99.90
11963;DHT22;62678;52.130;5.584;2022-11-12T09:30:35;8.70;99.90
11963;DHT22;62678;52.130;5.584;2022-11-12T09:33:02;8.80;99.90
11963;DHT22;62678;52.130;5.584;2022-11-12T09:35:29;8.90;99.90
11963;DHT22;62678;52.130;5.584;2022-11-12T09:37:56;8.90;99.90
11963;DHT22;62678;52.130;5.584;2022-11-12T09:40:36;9.10;99.90
11963;DHT22;62678;52.130;5.584;2022-11-12T09:43:15;9.20;99.90
11963;DHT22;62678;52.130;5.584;2022-11-12T09:45:44;9.20;99.90
11963;DHT22;62678;52.130;5.584;2022-11-12T09:48:15;9.30;99.90
11963;DHT22;62678;52.130;5.584;2022-11-12T09:50:52;9.40;99.90
11963;DHT22;62678;52.130;5.584;2022-11-12T09:53:25;9.50;99.90
11963;DHT22;62678;52.130;5.584;2022-11-12T09:55:57;9.60;99.90
11963;DHT22;62678;52.130;5.584;2022-11-12T09:58:24;9.70;99.90
11963;DHT22;62678;52.130;5.584;2022-11-12T10:00:54;9.90;99.90
11963;DHT22;62678;52.130;5.584;2022-11-12T10:03:30;9.90;99.90
11963;DHT22;62678;52.130;5.584;2022-11-12T10:06:02;10.00;99.90
11963;DHT22;62678;52.130;5.584;2022-11-12T10:08:36;10.10;99.90
11963;DHT22;62678;52.130;5.584;2022-11-12T10:11:17;10.30;99.90
11963;DHT22;62678;52.130;5.584;2022-11-12T10:13:56;10.40;99.90
11963;DHT22;62678;52.130;5.584;2022-11-12T10:16:40;10.40;99.90
11963;DHT22;62678;52.130;5.584;2022-11-12T10:19:22;10.50;99.90
11963;DHT22;62678;52.130;5.584;2022-11-12T10:21:55;10.60;99.90
11963;DHT22;62678;52.130;5.584;2022-11-12T10:24:26;10.60;99.90
11963;DHT22;62678;52.130;5.584;2022-11-12T10:26:56;10.70;99.90
11963;DHT22;62678;52.130;5.584;2022-11-12T10:29:28;10.80;99.90
11963;DHT22;62678;52.130;5.584;2022-11-12T10:31:56;10.90;99.90
11963;DHT22;62678;52.130;5.584;2022-11-12T10:34:26;10.90;99.90
11963;DHT22;62678;52.130;5.584;2022-11-12T10:36:55;11.00;99.90
11963;DHT22;62678;52.130;5.584;2022-11-12T10:39:34;11.10;99.90
11963;DHT22;62678;52.130;5.584;2022-11-12T10:42:04;11.20;99.90
11963;DHT22;62678;52.130;5.584;2022-11-12T10:44:32;11.30;99.90
11963;DHT22;62678;52.130;5.584;2022-11-12T10:47:26;11.40;99.90
11963;DHT22;62678;52.130;5.584;2022-11-12T10:50:15;11.40;99.90
11963;DHT22;62678;52.130;5.584;2022-11-12T10:52:58;11.60;99.90
11963;DHT22;62678;52.130;5.584;2022-11-12T10:55:27;11.60;99.90
11963;DHT22;62678;52.130;5.584;2022-11-12T10:58:10;11.70;99.90
11963;DHT22;62678;52.130;5.584;2022-11-12T11:00:51;11.80;99.90
11963;DHT22;62678;52.130;5.584;2022-11-12T11:03:21;12.00;99.90
11963;DHT22;62678;52.130;5.584;2022-11-12T11:05:52;12.00;99.90
11963;DHT22;62678;52.130;5.584;2022-11-12T11:08:35;12.10;99.90
11963;DHT22;62678;52.130;5.584;2022-11-12T11:11:21;12.20;99.90
11963;DHT22;62678;52.130;5.584;2022-11-12T11:13:50;12.30;99.90
11963;DHT22;62678;52.130;5.584;2022-11-12T11:16:19;12.40;99.90
11963;DHT22;62678;52.130;5.584;2022-11-12T11:18:48;12.50;99.90
11963;DHT22;62678;52.130;5.584;2022-11-12T11:21:28;12.50;99.90
11963;DHT22;62678;52.130;5.584;2022-11-12T11:24:03;12.60;99.90
11963;DHT22;62678;52.130;5.584;2022-11-12T11:26:38;12.80;99.90
11963;DHT22;62678;52.130;5.584;2022-11-12T11:29:26;12.80;99.90
11963;DHT22;62678;52.130;5.584;2022-11-12T11:32:06;12.90;99.90
11963;DHT22;62678;52.130;5.584;2022-11-12T11:34:42;13.00;99.90
11963;DHT22;62678;52.130;5.584;2022-11-12T11:37:23;13.10;99.90
11963;DHT22;62678;52.130;5.584;2022-11-12T11:40:00;13.10;99.90
11963;DHT22;62678;52.130;5.584;2022-11-12T11:42:47;13.20;99.90
11963;DHT22;62678;52.130;5.584;2022-11-12T11:45:20;13.20;99.90
11963;DHT22;62678;52.130;5.584;2022-11-12T11:47:52;13.20;99.90
11963;DHT22;62678;52.130;5.584;2022-11-12T11:50:24;13.30;99.90
11963;DHT22;62678;52.130;5.584;2022-11-12T11:53:00;13.30;99.90
11963;DHT22;62678;52.130;5.584;2022-11-12T11:55:37;13.30;99.90
11963;DHT22;62678;52.130;5.584;2022-11-12T11:58:22;13.50;99.90
11963;DHT22;62678;52.130;5.584;2022-11-12T12:01:02;13.50;99.90
11963;DHT22;62678;52.130;5.584;2022-11-12T12:03:37;13.60;99.90
11963;DHT22;62678;52.130;5.584;2022-11-12T12:06:21;13.70;99.90
11963;DHT22;62678;52.130;5.584;2022-11-12T12:08:58;13.70;99.90
11963;DHT22;62678;52.130;5.584;2022-11-12T12:11:32;13.80;99.90
11963;DHT22;62678;52.130;5.584;2022-11-12T12:14:23;13.70;99.90
11963;DHT22;62678;52.130;5.584;2022-11-12T12:17:00;13.80;99.90
11963;DHT22;62678;52.130;5.584;2022-11-12T12:19:40;13.80;99.90
11963;DHT22;62678;52.130;5.584;2022-11-12T12:22:14;13.90;99.90
11963;DHT22;62678;52.130;5.584;2022-11-12T12:24:47;14.00;99.90
11963;DHT22;62678;52.130;5.584;2022-11-12T12:27:18;14.00;99.90
11963;DHT22;62678;52.130;5.584;2022-11-12T12:29:49;14.10;99.90
11963;DHT22;62678;52.130;5.584;2022-11-12T12:32:22;14.20;99.90
11963;DHT22;62678;52.130;5.584;2022-11-12T12:34:55;14.30;99.90
11963;DHT22;62678;52.130;5.584;2022-11-12T12:37:32;14.40;99.90
11963;DHT22;62678;52.130;5.584;2022-11-12T12:40:07;14.50;99.90
11963;DHT22;62678;52.130;5.584;2022-11-12T12:42:39;14.50;99.90
11963;DHT22;62678;52.130;5.584;2022-11-12T12:45:31;14.60;99.90
11963;DHT22;62678;52.130;5.584;2022-11-12T12:48:03;14.70;99.90
11963;DHT22;62678;52.130;5.584;2022-11-12T12:50:31;14.80;99.90
11963;DHT22;62678;52.130;5.584;2022-11-12T12:53:03;14.80;99.90
11963;DHT22;62678;52.130;5.584;2022-11-12T12:55:36;14.90;99.90
11963;DHT22;62678;52.130;5.584;2022-11-12T12:58:03;14.90;99.90
11963;DHT22;62678;52.130;5.584;2022-11-12T13:00:36;14.90;99.90
11963;DHT22;62678;52.130;5.584;2022-11-12T13:03:08;14.90;99.90
11963;DHT22;62678;52.130;5.584;2022-11-12T13:05:36;15.00;99.90
11963;DHT22;62678;52.130;5.584;2022-11-12T13:08:08;15.00;99.90
11963;DHT22;62678;52.130;5.584;2022-11-12T13:10:53;15.00;99.90
11963;DHT22;62678;52.130;5.584;2022-11-12T13:13:29;15.00;99.90
11963;DHT22;62678;52.130;5.584;2022-11-12T13:15:57;15.10;99.90
11963;DHT22;62678;52.130;5.584;2022-11-12T13:18:57;15.10;99.90
11963;DHT22;62678;52.130;5.584;2022-11-12T13:21:25;15.10;99.90
11963;DHT22;62678;52.130;5.584;2022-11-12T13:23:56;15.10;99.90
11963;DHT22;62678;52.130;5.584;2022-11-12T13:26:45;15.20;99.90
11963;DHT22;62678;52.130;5.584;2022-11-12T13:29:43;15.40;99.90
11963;DHT22;62678;52.130;5.584;2022-11-12T13:32:30;15.30;99.90
11963;DHT22;62678;52.130;5.584;2022-11-12T13:35:27;15.30;99.90
11963;DHT22;62678;52.130;5.584;2022-11-12T13:37:57;15.40;99.90
11963;DHT22;62678;52.130;5.584;2022-11-12T13:40:40;15.40;99.90
11963;DHT22;62678;52.130;5.584;2022-11-12T13:43:30;15.40;99.90
11963;DHT22;62678;52.130;5.584;2022-11-12T13:48:45;15.50;99.90
11963;DHT22;62678;52.130;5.584;2022-11-12T13:51:16;15.50;99.90
11963;DHT22;62678;52.130;5.584;2022-11-12T13:53:44;15.50;99.90
11963;DHT22;62678;52.130;5.584;2022-11-12T13:56:11;15.50;99.90
11963;DHT22;62678;52.130;5.584;2022-11-12T13:58:39;15.50;99.90
11963;DHT22;62678;52.130;5.584;2022-11-12T14:01:10;15.50;99.90
11963;DHT22;62678;52.130;5.584;2022-11-12T14:03:43;15.50;99.90
11963;DHT22;62678;52.130;5.584;2022-11-12T14:06:16;15.60;99.90
11963;DHT22;62678;52.130;5.584;2022-11-12T14:09:11;15.60;99.90
11963;DHT22;62678;52.130;5.584;2022-11-12T14:11:56;15.60;99.90
11963;DHT22;62678;52.130;5.584;2022-11-12T14:14:38;15.70;99.90
11963;DHT22;62678;52.130;5.584;2022-11-12T14:17:20;15.60;99.90
11963;DHT22;62678;52.130;5.584;2022-11-12T14:20:05;15.60;99.90
11963;DHT22;62678;52.130;5.584;2022-11-12T14:22:38;15.60;99.90
11963;DHT22;62678;52.130;5.584;2022-11-12T14:25:12;15.60;99.90
11963;DHT22;62678;52.130;5.584;2022-11-12T14:27:39;15.50;99.90
11963;DHT22;62678;52.130;5.584;2022-11-12T14:30:18;15.40;99.90
11963;DHT22;62678;52.130;5.584;2022-11-12T14:32:47;15.50;99.90
11963;DHT22;62678;52.130;5.584;2022-11-12T14:35:33;15.30;99.90
11963;DHT22;62678;52.130;5.584;2022-11-12T14:38:12;15.30;99.90
11963;DHT22;62678;52.130;5.584;2022-11-12T14:40:45;15.30;99.90
11963;DHT22;62678;52.130;5.584;2022-11-12T14:43:23;15.30;99.90
11963;DHT22;62678;52.130;5.584;2022-11-12T14:45:53;15.20;99.90
11963;DHT22;62678;52.130;5.584;2022-11-12T14:48:20;15.20;99.90
11963;DHT22;62678;52.130;5.584;2022-11-12T14:50:50;15.10;99.90
11963;DHT22;62678;52.130;5.584;2022-11-12T14:53:22;15.20;99.90
11963;DHT22;62678;52.130;5.584;2022-11-12T14:55:52;15.10;99.90
11963;DHT22;62678;52.130;5.584;2022-11-12T14:58:21;15.00;99.90
11963;DHT22;62678;52.130;5.584;2022-11-12T15:00:50;15.00;99.90
11963;DHT22;62678;52.130;5.584;2022-11-12T15:03:19;15.00;99.90
11963;DHT22;62678;52.130;5.584;2022-11-12T15:05:57;14.90;99.90
11963;DHT22;62678;52.130;5.584;2022-11-12T15:08:35;14.90;99.90
11963;DHT22;62678;52.130;5.584;2022-11-12T15:11:23;14.90;99.90
11963;DHT22;62678;52.130;5.584;2022-11-12T15:13:53;14.80;99.90
11963;DHT22;62678;52.130;5.584;2022-11-12T15:16:24;14.70;99.90
11963;DHT22;62678;52.130;5.584;2022-11-12T15:19:15;14.70;99.90
11963;DHT22;62678;52.130;5.584;2022-11-12T15:21:44;14.70;99.90
11963;DHT22;62678;52.130;5.584;2022-11-12T15:24:18;14.60;99.90
11963;DHT22;62678;52.130;5.584;2022-11-12T15:26:47;14.50;99.90
11963;DHT22;62678;52.130;5.584;2022-11-12T15:29:29;14.30;99.90
11963;DHT22;62678;52.130;5.584;2022-11-12T15:31:58;14.20;99.90
11963;DHT22;62678;52.130;5.584;2022-11-12T15:34:28;14.20;99.90
11963;DHT22;62678;52.130;5.584;2022-11-12T15:36:57;14.10;99.90
11963;DHT22;62678;52.130;5.584;2022-11-12T15:39:26;13.90;99.90
11963;DHT22;62678;52.130;5.584;2022-11-12T15:41:57;13.90;99.90
11963;DHT22;62678;52.130;5.584;2022-11-12T15:44:25;13.80;99.90
11963;DHT22;62678;52.130;5.584;2022-11-12T15:46:55;13.70;99.90
11963;DHT22;62678;52.130;5.584;2022-11-12T15:49:23;13.70;99.90
11963;DHT22;62678;52.130;5.584;2022-11-12T15:51:50;13.60;99.90
11963;DHT22;62678;52.130;5.584;2022-11-12T15:54:16;13.50;99.90
11963;DHT22;62678;52.130;5.584;2022-11-12T15:56:45;13.50;99.90
11963;DHT22;62678;52.130;5.584;2022-11-12T15:59:14;13.50;99.90
11963;DHT22;62678;52.130;5.584;2022-11-12T16:01:41;13.40;99.90
11963;DHT22;62678;52.130;5.584;2022-11-12T16:04:10;13.20;99.90
11963;DHT22;62678;52.130;5.584;2022-11-12T16:06:37;13.20;99.90